createdAt,value
2022-11-16T00:01:52.472Z,7.20
2022-11-16T00:05:34.527Z,7.20
2022-11-16T00:09:28.747Z,7.20
2022-11-16T00:13:10.713Z,7.10
2022-11-16T00:16:52.867Z,7.10
2022-11-16T00:20:34.746Z,7.00
2022-11-16T00:24:18.121Z,7.00
2022-11-16T00:28:00.086Z,6.90
2022-11-16T00:31:42.201Z,6.90
2022-11-16T00:35:24.077Z,6.90
2022-11-16T00:39:06.057Z,6.90
2022-11-16T00:42:48.151Z,6.80
2022-11-16T00:46:30.061Z,6.80
2022-11-16T00:50:12.006Z,6.80
2022-11-16T00:53:53.906Z,6.80
2022-11-16T00:57:36.447Z,6.80
2022-11-16T01:01:18.940Z,6.80
2022-11-16T01:05:01.063Z,6.80
2022-11-16T01:08:43.921Z,6.80
2022-11-16T01:12:26.538Z,6.80
2022-11-16T01:16:08.682Z,6.80
2022-11-16T01:19:50.677Z,6.90
2022-11-16T01:23:32.662Z,6.90
2022-11-16T01:27:15.075Z,6.90
2022-11-16T01:30:57.184Z,6.90
2022-11-16T01:34:41.806Z,6.90
2022-11-16T01:38:27.217Z,6.80
2022-11-16T01:42:19.904Z,6.80
2022-11-16T01:46:01.914Z,6.80
2022-11-16T01:49:48.586Z,6.80
2022-11-16T01:53:30.756Z,6.80
2022-11-16T01:57:17.331Z,6.80
2022-11-16T02:00:59.487Z,6.90
2022-11-16T02:04:41.810Z,6.90
2022-11-16T02:09:08.545Z,6.90
2022-11-16T02:12:54.167Z,6.90
2022-11-16T02:16:42.304Z,6.80
2022-11-16T02:20:52.718Z,6.80
2022-11-16T02:24:45.762Z,6.70
2022-11-16T02:28:54.330Z,6.70
2022-11-16T02:33:04.418Z,6.70
2022-11-16T02:36:50.176Z,6.70
2022-11-16T02:40:36.147Z,6.80
2022-11-16T02:44:36.361Z,6.80
2022-11-16T02:48:24.191Z,6.80
2022-11-16T02:52:06.313Z,6.80
2022-11-16T02:55:48.320Z,6.70
2022-11-16T02:59:55.402Z,6.60
2022-11-16T03:03:50.017Z,6.60
2022-11-16T03:07:52.342Z,6.60
2022-11-16T03:11:56.533Z,6.60
2022-11-16T03:15:41.644Z,6.60
2022-11-16T03:19:42.051Z,6.60
2022-11-16T03:23:24.054Z,6.60
2022-11-16T03:27:15.451Z,6.60
2022-11-16T03:31:15.610Z,6.60
2022-11-16T03:35:03.339Z,6.70
2022-11-16T03:38:50.877Z,6.70
2022-11-16T03:42:33.730Z,6.80
2022-11-16T03:46:17.686Z,6.90
2022-11-16T03:49:59.534Z,6.90
2022-11-16T03:53:41.542Z,7.00
2022-11-16T03:57:23.369Z,7.10
2022-11-16T04:01:05.985Z,7.20
2022-11-16T04:05:06.627Z,7.20
2022-11-16T04:09:06.746Z,7.30
2022-11-16T04:13:06.705Z,7.40
2022-11-16T04:17:07.559Z,7.50
2022-11-16T04:21:08.146Z,7.60
2022-11-16T04:24:55.217Z,7.70
2022-11-16T04:28:37.971Z,7.70
2022-11-16T04:32:39.041Z,7.70
2022-11-16T04:36:39.433Z,7.80
2022-11-16T04:40:29.597Z,7.80
2022-11-16T04:44:11.653Z,7.80
2022-11-16T04:47:53.878Z,7.90
2022-11-16T04:51:35.798Z,7.90
2022-11-16T04:55:17.979Z,7.90
2022-11-16T04:58:59.951Z,7.90
2022-11-16T05:02:41.901Z,7.90
2022-11-16T05:06:23.721Z,7.90
2022-11-16T05:10:07.199Z,7.90
2022-11-16T05:13:49.046Z,7.90
2022-11-16T05:17:31.205Z,7.90
2022-11-16T05:21:13.108Z,7.90
2022-11-16T05:24:55.510Z,7.90
2022-11-16T05:28:37.646Z,7.90
2022-11-16T05:32:21.060Z,7.90
2022-11-16T05:36:03.032Z,7.90
2022-11-16T05:39:45.281Z,7.90
2022-11-16T05:43:27.129Z,7.90
2022-11-16T05:47:08.994Z,7.90
2022-11-16T05:50:50.885Z,7.90
2022-11-16T05:54:32.967Z,8.00
2022-11-16T05:58:14.822Z,8.00
2022-11-16T06:01:56.796Z,8.10
2022-11-16T06:05:40.607Z,8.00
2022-11-16T06:09:22.727Z,8.00
2022-11-16T06:13:04.541Z,8.00
2022-11-16T06:16:46.402Z,8.00
2022-11-16T06:20:28.229Z,8.00
2022-11-16T06:24:10.331Z,8.00
2022-11-16T06:27:52.389Z,8.00
2022-11-16T06:31:34.301Z,8.10
2022-11-16T06:35:16.763Z,8.10
2022-11-16T06:39:02.090Z,8.10
2022-11-16T06:42:46.583Z,8.00
2022-11-16T06:46:28.623Z,8.00
2022-11-16T06:50:10.734Z,7.90
2022-11-16T06:53:52.659Z,7.80
2022-11-16T06:57:35.901Z,7.60
2022-11-16T07:01:17.863Z,7.50
2022-11-16T07:05:03.486Z,7.40
2022-11-16T07:08:46.049Z,7.30
2022-11-16T07:12:30.478Z,7.20
2022-11-16T07:16:12.684Z,7.10
2022-11-16T07:19:54.735Z,6.90
2022-11-16T07:23:36.871Z,6.80
2022-11-16T07:27:23.237Z,6.70
2022-11-16T07:31:11.144Z,6.60
2022-11-16T07:34:53.176Z,6.50
2022-11-16T07:38:35.984Z,6.40
2022-11-16T07:42:19.583Z,6.30
2022-11-16T07:46:44.538Z,6.20
2022-11-16T07:50:08.824Z,6.20
2022-11-16T07:53:55.655Z,6.10
2022-11-16T07:57:37.650Z,6.10
2022-11-16T08:01:19.683Z,6.10
2022-11-16T08:05:01.739Z,6.10
2022-11-16T08:08:44.277Z,6.10
2022-11-16T08:12:26.210Z,6.20
2022-11-16T08:16:19.819Z,6.30
2022-11-16T08:20:06.383Z,6.50
2022-11-16T08:23:58.658Z,6.60
2022-11-16T08:31:38.086Z,6.70
2022-11-16T08:35:20.003Z,6.80
2022-11-16T08:39:23.002Z,6.80
2022-11-16T08:43:04.877Z,7.00
2022-11-16T08:46:46.829Z,7.10
2022-11-16T08:50:55.542Z,7.30
2022-11-16T08:55:24.482Z,7.50
2022-11-16T08:59:07.510Z,8.20
2022-11-16T09:02:52.479Z,8.40
2022-11-16T09:06:36.382Z,8.60
2022-11-16T09:10:23.019Z,8.60
2022-11-16T09:14:11.994Z,8.60
2022-11-16T09:17:55.038Z,8.70
2022-11-16T09:21:37.685Z,8.90
2022-11-16T09:25:26.644Z,9.80
2022-11-16T09:33:58.900Z,11.50
2022-11-16T09:37:49.284Z,12.70
2022-11-16T09:41:45.351Z,13.20
2022-11-16T09:46:15.641Z,13.00
2022-11-16T09:50:12.352Z,12.40
2022-11-16T09:54:13.645Z,11.90
2022-11-16T09:58:15.235Z,11.50
2022-11-16T10:02:03.717Z,11.20
2022-11-16T10:06:32.371Z,11.00
2022-11-16T10:10:37.282Z,10.80
2022-11-16T10:15:01.767Z,10.70
2022-11-16T10:19:30.095Z,10.70
2022-11-16T10:29:09.716Z,11.10
2022-11-16T10:33:10.903Z,11.30
2022-11-16T10:37:07.214Z,11.40
2022-11-16T10:40:56.076Z,11.40
2022-11-16T10:45:04.126Z,11.40
2022-11-16T10:49:25.787Z,11.50
2022-11-16T10:53:57.233Z,11.60
2022-11-16T10:57:58.579Z,11.80
2022-11-16T11:02:19.031Z,11.90
2022-11-16T11:06:26.021Z,12.00
2022-11-16T11:10:49.760Z,12.10
2022-11-16T11:15:25.863Z,12.20
2022-11-16T11:23:43.079Z,12.50
2022-11-16T11:27:46.011Z,12.60
2022-11-16T11:36:05.425Z,12.60
2022-11-16T11:40:14.907Z,12.60
2022-11-16T11:48:29.446Z,12.40
2022-11-16T11:52:59.349Z,12.40
2022-11-16T12:01:34.685Z,12.20
2022-11-16T12:05:23.346Z,12.10
2022-11-16T12:09:26.123Z,12.10
2022-11-16T12:13:57.485Z,12.10
2022-11-16T12:17:46.230Z,12.00
2022-11-16T12:21:51.502Z,11.90
2022-11-16T12:30:10.438Z,12.10
2022-11-16T12:34:16.188Z,12.20
2022-11-16T12:42:33.892Z,12.40
2022-11-16T12:47:06.283Z,12.50
2022-11-16T12:51:34.006Z,12.50
2022-11-16T12:55:37.225Z,12.60
2022-11-16T13:07:00.800Z,12.60
2022-11-16T13:10:46.821Z,12.60
2022-11-16T13:14:51.148Z,12.60
2022-11-16T13:18:37.130Z,12.60
2022-11-16T13:22:40.917Z,12.60
2022-11-16T13:26:38.811Z,12.50
2022-11-16T13:31:03.321Z,12.40
2022-11-16T13:35:06.819Z,12.40
2022-11-16T13:38:53.495Z,12.30
2022-11-16T13:43:03.728Z,12.20
2022-11-16T13:46:56.905Z,12.20
2022-11-16T14:11:00.389Z,11.90
2022-11-16T14:20:01.904Z,11.80
2022-11-16T14:24:06.398Z,11.70
2022-11-16T14:28:27.544Z,11.60
2022-11-16T14:32:41.281Z,11.50
2022-11-16T14:37:00.565Z,11.50
2022-11-16T14:40:49.543Z,11.40
2022-11-16T14:53:59.227Z,11.20
2022-11-16T15:03:26.496Z,11.10
2022-11-16T15:12:27.405Z,11.00
2022-11-16T15:16:30.338Z,10.90
2022-11-16T15:20:22.137Z,10.80
2022-11-16T15:41:44.772Z,10.70
2022-11-16T15:50:20.419Z,10.60
2022-11-16T16:03:33.016Z,10.60
2022-11-16T16:07:43.270Z,10.60
2022-11-16T16:11:27.126Z,10.60
2022-11-16T16:15:37.359Z,10.50
2022-11-16T16:19:31.350Z,10.50
2022-11-16T16:23:17.873Z,10.40
2022-11-16T16:26:59.779Z,10.40
2022-11-16T16:30:43.175Z,10.30
2022-11-16T16:34:25.023Z,10.20
2022-11-16T16:38:13.072Z,10.10
2022-11-16T16:41:55.120Z,10.10
2022-11-16T16:45:43.579Z,10.00
2022-11-16T16:49:25.447Z,10.00
2022-11-16T16:53:07.424Z,9.90
2022-11-16T16:56:49.310Z,9.80
2022-11-16T17:00:31.594Z,9.80
2022-11-16T17:04:13.536Z,9.80
2022-11-16T17:07:56.422Z,9.80
2022-11-16T17:11:38.483Z,9.90
2022-11-16T17:15:20.557Z,9.90
2022-11-16T17:19:03.926Z,9.80
2022-11-16T17:22:46.244Z,9.80
2022-11-16T17:26:29.659Z,9.70
2022-11-16T17:30:12.463Z,9.60
2022-11-16T17:33:57.473Z,9.50
2022-11-16T17:37:39.462Z,9.50
2022-11-16T17:41:22.302Z,9.40
2022-11-16T17:45:04.827Z,9.50
2022-11-16T17:48:48.086Z,9.40
2022-11-16T17:52:30.112Z,9.40
2022-11-16T17:56:14.413Z,9.40
2022-11-16T17:59:56.330Z,9.30
2022-11-16T18:03:39.095Z,9.30
2022-11-16T18:07:21.099Z,9.30
2022-11-16T18:11:11.997Z,9.30
2022-11-16T18:15:21.292Z,9.30
2022-11-16T18:18:58.081Z,9.20
2022-11-16T18:22:39.955Z,9.20
2022-11-16T18:26:24.000Z,9.20
2022-11-16T18:30:08.240Z,9.10
2022-11-16T18:33:50.670Z,9.10
2022-11-16T18:37:32.552Z,9.10
2022-11-16T18:41:20.831Z,9.00
2022-11-16T18:45:02.756Z,9.00
2022-11-16T18:48:44.932Z,9.00
2022-11-16T18:52:26.912Z,9.00
2022-11-16T18:56:09.418Z,9.00
2022-11-16T18:59:51.368Z,9.00
2022-11-16T19:03:34.369Z,8.90
2022-11-16T19:07:16.570Z,8.90
2022-11-16T19:11:10.618Z,8.90
2022-11-16T19:14:52.639Z,8.90
2022-11-16T19:18:36.359Z,8.80
2022-11-16T19:22:19.736Z,8.90
2022-11-16T19:26:04.938Z,8.80
2022-11-16T19:29:46.869Z,8.80
2022-11-16T19:33:28.858Z,8.80
2022-11-16T19:37:11.690Z,8.80
2022-11-16T19:40:53.649Z,8.80
2022-11-16T19:44:35.605Z,8.80
2022-11-16T19:48:17.478Z,8.80
2022-11-16T19:51:59.679Z,8.70
2022-11-16T19:55:41.893Z,8.70
2022-11-16T19:59:23.883Z,8.70
2022-11-16T20:03:05.792Z,8.80
2022-11-16T20:06:47.745Z,8.80
2022-11-16T20:10:30.877Z,8.80
2022-11-16T20:14:13.805Z,8.70
2022-11-16T20:17:55.693Z,8.80
2022-11-16T20:21:42.641Z,8.80
2022-11-16T20:25:24.495Z,8.80
2022-11-16T20:29:06.588Z,8.80
2022-11-16T20:32:48.496Z,8.80
2022-11-16T20:36:33.133Z,8.80
2022-11-16T20:40:15.255Z,8.80
2022-11-16T20:43:59.214Z,8.80
2022-11-16T20:47:41.098Z,8.80
2022-11-16T20:51:23.487Z,8.80
2022-11-16T20:55:05.839Z,8.80
2022-11-16T20:58:49.037Z,8.80
2022-11-16T21:02:31.223Z,8.80
2022-11-16T21:06:14.141Z,8.80
2022-11-16T21:10:14.753Z,8.80
2022-11-16T21:14:15.538Z,8.80
2022-11-16T21:17:57.502Z,8.80
2022-11-16T21:21:40.873Z,8.80
2022-11-16T21:25:22.858Z,8.80
2022-11-16T21:29:05.227Z,8.80
2022-11-16T21:32:47.121Z,8.80
2022-11-16T21:36:31.144Z,8.70
2022-11-16T21:40:13.215Z,8.70
2022-11-16T21:43:55.356Z,8.70
2022-11-16T21:47:37.244Z,8.70
2022-11-16T21:51:21.586Z,8.70
2022-11-16T21:55:03.918Z,8.70
2022-11-16T21:58:46.235Z,8.70
2022-11-16T22:02:28.105Z,8.60
2022-11-16T22:06:32.267Z,8.60
2022-11-16T22:10:14.292Z,8.60
2022-11-16T22:13:56.257Z,8.60
2022-11-16T22:17:45.244Z,8.60
2022-11-16T22:21:27.106Z,8.60
2022-11-16T22:25:09.260Z,8.60
2022-11-16T22:28:53.238Z,8.60
2022-11-16T22:32:35.473Z,8.60
2022-11-16T22:36:17.342Z,8.60
2022-11-16T22:39:59.361Z,8.60
2022-11-16T22:43:44.271Z,8.60
2022-11-16T22:47:27.620Z,8.50
2022-11-16T22:51:18.115Z,8.60
2022-11-16T22:55:00.244Z,8.50
2022-11-16T22:58:42.456Z,8.50
2022-11-16T23:02:24.714Z,8.50
2022-11-16T23:06:08.567Z,8.50
2022-11-16T23:09:50.557Z,8.50
2022-11-16T23:13:50.977Z,8.50
2022-11-16T23:17:33.111Z,8.50
2022-11-16T23:21:34.008Z,8.50
2022-11-16T23:25:34.538Z,8.50
2022-11-16T23:29:16.635Z,8.50
2022-11-16T23:32:58.812Z,8.50
2022-11-16T23:36:41.083Z,8.60
2022-11-16T23:40:26.032Z,8.60
2022-11-16T23:44:08.199Z,8.60
2022-11-16T23:47:50.253Z,8.60
2022-11-16T23:51:32.217Z,8.60
2022-11-16T23:55:14.179Z,8.60
2022-11-16T23:59:00.088Z,8.60
